Primda, Czech Republic
Current Conditions -  °F | °C
As of 12:11 AM on Friday 19 Dec 2014 (Local Time) from LKLN Reporting Station
Overcast Overcast  
Wind Chill: 52°   Ceiling: 1500
Heat Index: 52°   Visibility: 6mi
Dew Point: 48°   Wind: 10mph
Humidity: 88%   Direction: 240°WSW
Pressure: 29.94"   Gusts: NA
Location:  49.67°N, 12.68°E
Report Text: LKLN 182211Z AUTO 24009KT 9999 BKN015 OVC020 11/09 Q1014
Loading
Personal Weather Stations






























Interactive Weather Map New forecast layout! Learn more

10-Day Weather Forecast

Advertisements
Track Severe Weather on mobile